createdAt,value
2023-04-08T00:01:52.337Z,14.40
2023-04-08T00:04:20.957Z,14.67
2023-04-08T00:06:48.845Z,16.60
2023-04-08T00:09:17.093Z,13.50
2023-04-08T00:11:45.168Z,14.67
2023-04-08T00:14:12.997Z,13.83
2023-04-08T00:16:42.156Z,14.93
2023-04-08T00:19:11.011Z,13.20
2023-04-08T00:21:38.843Z,14.50
2023-04-08T00:24:07.245Z,12.77
2023-04-08T00:26:34.981Z,13.83
2023-04-08T00:29:02.714Z,14.07
2023-04-08T00:31:30.477Z,14.13
2023-04-08T00:34:01.372Z,12.27
2023-04-08T00:36:29.689Z,13.43
2023-04-08T00:38:57.575Z,12.97
2023-04-08T00:41:25.857Z,11.40
2023-04-08T00:43:54.178Z,12.97
2023-04-08T00:46:22.920Z,13.43
2023-04-08T00:48:51.498Z,13.57
2023-04-08T00:51:21.260Z,14.23
2023-04-08T00:53:49.599Z,11.30
2023-04-08T00:56:17.910Z,11.60
2023-04-08T00:58:46.488Z,12.77
2023-04-08T01:01:22.975Z,12.80
2023-04-08T01:03:57.092Z,11.80
2023-04-08T01:06:33.183Z,13.20
2023-04-08T01:09:02.339Z,12.57
2023-04-08T01:11:32.301Z,13.50
2023-04-08T01:14:00.991Z,13.13
2023-04-08T01:16:29.668Z,11.63
2023-04-08T01:18:57.766Z,11.80
2023-04-08T01:21:29.014Z,13.20
2023-04-08T01:24:03.155Z,12.60
2023-04-08T01:26:33.002Z,12.37
2023-04-08T01:29:01.974Z,12.50
2023-04-08T01:31:30.570Z,10.73
2023-04-08T01:34:00.759Z,12.50
2023-04-08T01:36:30.277Z,13.20
2023-04-08T01:38:59.344Z,12.33
2023-04-08T01:41:28.196Z,13.47
2023-04-08T01:43:57.999Z,13.30
2023-04-08T01:46:26.212Z,12.13
2023-04-08T01:48:54.135Z,12.43
2023-04-08T01:51:22.670Z,11.23
2023-04-08T01:53:51.212Z,11.97
2023-04-08T01:56:23.460Z,12.90
2023-04-08T01:58:53.655Z,11.50
2023-04-08T02:01:24.342Z,11.23
2023-04-08T02:03:53.833Z,12.17
2023-04-08T02:06:21.737Z,13.07
2023-04-08T02:08:50.131Z,12.67
2023-04-08T02:11:17.965Z,12.03
2023-04-08T02:13:45.932Z,11.30
2023-04-08T02:16:17.694Z,11.27
2023-04-08T02:18:53.288Z,11.70
2023-04-08T02:21:23.027Z,12.50
2023-04-08T02:23:52.475Z,11.10
2023-04-08T02:26:23.142Z,10.90
2023-04-08T02:28:51.611Z,11.40
2023-04-08T02:31:23.773Z,10.80
2023-04-08T02:33:54.982Z,9.70
2023-04-08T02:36:23.641Z,10.50
2023-04-08T02:38:51.963Z,9.60
2023-04-08T02:41:19.797Z,11.13
2023-04-08T02:43:48.053Z,12.43
2023-04-08T02:46:16.110Z,10.63
2023-04-08T02:48:43.908Z,11.80
2023-04-08T02:51:12.983Z,11.83
2023-04-08T02:53:40.840Z,12.10
2023-04-08T02:56:11.244Z,11.23
2023-04-08T02:58:39.095Z,13.40
2023-04-08T03:01:06.948Z,12.60
2023-04-08T03:03:34.750Z,12.57
2023-04-08T03:06:02.880Z,13.00
2023-04-08T03:08:32.985Z,14.07
2023-04-08T03:11:00.859Z,13.53
2023-04-08T03:13:29.717Z,14.50
2023-04-08T03:15:57.464Z,14.80
2023-04-08T03:18:25.478Z,14.93
2023-04-08T03:20:53.171Z,14.20
2023-04-08T03:23:20.798Z,15.23
2023-04-08T03:25:49.965Z,14.97
2023-04-08T03:28:17.687Z,16.77
2023-04-08T03:30:45.331Z,15.67
2023-04-08T03:33:13.148Z,16.13
2023-04-08T03:35:41.272Z,16.83
2023-04-08T03:38:09.249Z,15.80
2023-04-08T03:40:37.496Z,21.10
2023-04-08T03:43:06.761Z,18.90
2023-04-08T03:45:34.707Z,18.33
2023-04-08T03:48:02.433Z,20.53
2023-04-08T03:50:31.035Z,19.50
2023-04-08T03:52:58.820Z,21.07
2023-04-08T03:55:26.588Z,21.30
2023-04-08T03:57:54.147Z,21.27
2023-04-08T04:00:23.258Z,20.00
2023-04-08T04:02:51.073Z,22.43
2023-04-08T04:05:19.014Z,19.87
2023-04-08T04:07:46.646Z,17.43
2023-04-08T04:10:14.483Z,21.13
2023-04-08T04:12:42.097Z,21.30
2023-04-08T04:15:10.365Z,20.13
2023-04-08T04:17:39.945Z,19.17
2023-04-08T04:20:08.932Z,19.27
2023-04-08T04:22:36.909Z,19.40
2023-04-08T04:25:04.664Z,13.60
2023-04-08T04:27:32.657Z,19.57
2023-04-08T04:30:01.777Z,20.03
2023-04-08T04:32:29.930Z,17.83
2023-04-08T04:34:59.098Z,19.80
2023-04-08T04:37:27.547Z,19.13
2023-04-08T04:39:55.979Z,19.93
2023-04-08T04:42:23.985Z,19.30
2023-04-08T04:44:51.886Z,17.43
2023-04-08T04:47:19.973Z,18.77
2023-04-08T04:49:48.466Z,17.27
2023-04-08T04:52:17.492Z,20.30
2023-04-08T04:54:46.961Z,18.37
2023-04-08T04:57:14.924Z,18.23
2023-04-08T04:59:42.879Z,19.07
2023-04-08T05:02:11.064Z,18.83
2023-04-08T05:04:39.532Z,19.37
2023-04-08T05:07:07.377Z,21.80
2023-04-08T05:09:36.447Z,20.40
2023-04-08T05:12:04.236Z,20.23
2023-04-08T05:14:33.480Z,21.90
2023-04-08T05:17:01.655Z,19.03
2023-04-08T05:19:29.505Z,16.23
2023-04-08T05:21:57.198Z,17.07
2023-04-08T05:24:27.886Z,19.30
2023-04-08T05:26:57.869Z,18.80
2023-04-08T05:29:25.758Z,19.10
2023-04-08T05:31:53.680Z,18.73
2023-04-08T05:34:23.154Z,20.27
2023-04-08T05:36:53.053Z,18.93
2023-04-08T05:39:21.291Z,20.67
2023-04-08T05:41:49.041Z,19.73
2023-04-08T05:44:18.701Z,21.77
2023-04-08T05:46:47.305Z,18.97
2023-04-08T05:49:15.747Z,20.37
2023-04-08T05:51:43.692Z,18.27
2023-04-08T05:54:12.080Z,20.47
2023-04-08T05:56:39.955Z,19.60
2023-04-08T05:59:07.628Z,19.80
2023-04-08T06:01:37.494Z,18.23
2023-04-08T06:04:05.931Z,18.63
2023-04-08T06:06:35.581Z,19.07
2023-04-08T06:09:03.562Z,20.23
2023-04-08T06:11:31.698Z,20.23
2023-04-08T06:13:59.442Z,20.37
2023-04-08T06:16:27.388Z,18.40
2023-04-08T06:18:56.445Z,18.30
2023-04-08T06:21:24.200Z,18.90
2023-04-08T06:23:52.062Z,19.40
2023-04-08T06:26:22.629Z,19.37
2023-04-08T06:28:50.890Z,19.00
2023-04-08T06:31:18.949Z,17.70
2023-04-08T06:33:46.597Z,18.17
2023-04-08T06:36:16.331Z,17.50
2023-04-08T06:38:43.989Z,18.50
2023-04-08T06:41:11.888Z,20.90
2023-04-08T06:43:39.943Z,17.30
2023-04-08T06:46:07.754Z,21.13
2023-04-08T06:48:37.552Z,19.53
2023-04-08T06:51:05.904Z,19.70
2023-04-08T06:53:34.963Z,19.03
2023-04-08T06:56:03.146Z,20.70
2023-04-08T06:58:31.226Z,16.77
2023-04-08T07:01:01.170Z,17.43
2023-04-08T07:03:29.173Z,17.40
2023-04-08T07:05:56.910Z,16.40
2023-04-08T07:08:24.814Z,16.53
2023-04-08T07:10:54.548Z,18.97
2023-04-08T07:13:22.464Z,18.00
2023-04-08T07:15:50.503Z,18.20
2023-04-08T07:18:18.065Z,14.77
2023-04-08T07:20:46.584Z,18.90
2023-04-08T07:23:14.719Z,18.90
2023-04-08T07:25:42.723Z,20.20
2023-04-08T07:28:11.989Z,19.53
2023-04-08T07:30:39.832Z,21.23
2023-04-08T07:33:08.064Z,18.77
2023-04-08T07:35:36.149Z,18.43
2023-04-08T07:38:04.402Z,19.57
2023-04-08T07:40:34.646Z,19.20
2023-04-08T07:43:04.048Z,18.60
2023-04-08T07:45:33.291Z,16.90
2023-04-08T07:48:02.249Z,16.83
2023-04-08T07:50:30.597Z,17.80
2023-04-08T07:52:59.115Z,20.23
2023-04-08T07:55:26.944Z,18.10
2023-04-08T07:57:55.270Z,18.60
2023-04-08T08:00:23.476Z,17.20
2023-04-08T08:02:53.037Z,16.70
2023-04-08T08:05:21.326Z,16.60
2023-04-08T08:07:50.517Z,17.00
2023-04-08T08:10:18.571Z,16.30
2023-04-08T08:12:46.461Z,17.57
2023-04-08T08:15:15.019Z,13.50
2023-04-08T08:17:43.072Z,17.03
2023-04-08T08:20:12.787Z,16.10
2023-04-08T08:22:50.813Z,16.17
2023-04-08T08:25:26.116Z,16.33
2023-04-08T08:27:55.738Z,17.57
2023-04-08T08:30:24.070Z,16.60
2023-04-08T08:32:52.363Z,18.20
2023-04-08T08:35:21.804Z,19.20
2023-04-08T08:37:49.810Z,17.40
2023-04-08T08:40:18.047Z,15.73
2023-04-08T08:42:52.632Z,17.33
2023-04-08T08:45:21.863Z,17.20
2023-04-08T08:47:51.139Z,15.93
2023-04-08T08:50:21.565Z,18.00
2023-04-08T08:52:51.782Z,16.77
2023-04-08T08:55:41.505Z,16.03
2023-04-08T08:58:10.359Z,14.53
2023-04-08T09:00:42.706Z,15.87
2023-04-08T09:03:21.346Z,16.43
2023-04-08T09:05:52.471Z,16.40
2023-04-08T09:08:30.539Z,17.23
2023-04-08T09:11:15.693Z,15.20
2023-04-08T09:13:45.020Z,15.27
2023-04-08T09:16:15.198Z,15.60
2023-04-08T09:18:44.841Z,14.40
2023-04-08T09:21:15.600Z,15.27
2023-04-08T09:23:45.242Z,13.57
2023-04-08T09:26:14.586Z,16.30
2023-04-08T09:28:43.831Z,14.37
2023-04-08T09:31:22.080Z,16.10
2023-04-08T09:33:50.547Z,12.90
2023-04-08T09:36:20.064Z,16.10
2023-04-08T09:38:48.036Z,14.00
2023-04-08T09:41:17.228Z,13.53
2023-04-08T09:43:49.873Z,16.07
2023-04-08T09:46:19.985Z,15.07
2023-04-08T09:48:51.981Z,14.60
2023-04-08T09:51:21.719Z,13.83
2023-04-08T09:53:53.105Z,15.10
2023-04-08T09:56:21.171Z,16.03
2023-04-08T09:58:53.621Z,18.60
2023-04-08T10:01:26.148Z,16.70
2023-04-08T10:03:57.248Z,15.80
2023-04-08T10:06:29.767Z,16.97
2023-04-08T10:08:57.793Z,14.57
2023-04-08T10:11:25.873Z,15.03
2023-04-08T10:13:53.620Z,14.97
2023-04-08T10:16:27.132Z,14.07
2023-04-08T10:18:56.871Z,14.33
2023-04-08T10:21:37.048Z,12.87
2023-04-08T10:24:08.480Z,12.13
2023-04-08T10:26:38.194Z,14.10
2023-04-08T10:29:42.717Z,14.07
2023-04-08T10:32:10.941Z,13.10
2023-04-08T10:34:53.032Z,14.10
2023-04-08T10:37:22.096Z,15.20
2023-04-08T10:39:55.457Z,15.20
2023-04-08T10:42:28.644Z,16.30
2023-04-08T10:45:01.473Z,15.80
2023-04-08T10:47:29.202Z,17.03
2023-04-08T10:49:57.781Z,19.47
2023-04-08T10:52:27.549Z,18.47
2023-04-08T10:54:55.668Z,19.17
2023-04-08T10:57:26.936Z,20.77
2023-04-08T10:59:54.869Z,21.10
2023-04-08T11:02:22.569Z,19.90
2023-04-08T11:04:50.687Z,21.70
2023-04-08T11:07:21.689Z,20.17
2023-04-08T11:09:51.163Z,21.97
2023-04-08T11:12:19.663Z,24.03
2023-04-08T11:14:48.547Z,21.47
2023-04-08T11:17:17.775Z,22.97
2023-04-08T11:19:45.453Z,21.93
2023-04-08T11:22:14.536Z,21.67
2023-04-08T11:24:42.352Z,22.57
2023-04-08T11:27:11.499Z,22.13
2023-04-08T11:29:40.235Z,21.47
2023-04-08T11:32:09.001Z,21.60
2023-04-08T11:34:40.224Z,20.73
2023-04-08T11:37:08.112Z,22.53
2023-04-08T11:39:36.408Z,17.10
2023-04-08T11:42:04.139Z,20.30
2023-04-08T11:44:33.813Z,18.17
2023-04-08T11:47:02.314Z,16.50
2023-04-08T11:49:44.814Z,16.30
2023-04-08T11:52:12.482Z,16.70
2023-04-08T11:54:42.877Z,17.83
2023-04-08T11:57:11.427Z,17.70
2023-04-08T11:59:40.360Z,17.53
2023-04-08T12:02:08.161Z,16.87
2023-04-08T12:04:35.894Z,19.10
2023-04-08T12:07:04.253Z,20.07
2023-04-08T12:09:32.006Z,17.10
2023-04-08T12:11:59.638Z,19.40
2023-04-08T12:14:28.428Z,17.20
2023-04-08T12:16:58.315Z,18.70
2023-04-08T12:19:27.029Z,19.90
2023-04-08T12:21:54.771Z,19.70
2023-04-08T12:24:22.362Z,17.60
2023-04-08T12:26:50.233Z,18.60
2023-04-08T12:29:17.914Z,18.13
2023-04-08T12:31:45.982Z,18.70
2023-04-08T12:34:15.125Z,17.70
2023-04-08T12:36:43.127Z,16.90
2023-04-08T12:39:10.955Z,19.70
2023-04-08T12:41:38.900Z,18.40
2023-04-08T12:44:06.570Z,19.03
2023-04-08T12:46:34.651Z,18.80
2023-04-08T12:49:04.565Z,18.37
2023-04-08T12:51:34.440Z,16.00
2023-04-08T12:54:03.440Z,17.80
2023-04-08T12:56:31.663Z,17.50
2023-04-08T12:58:59.397Z,16.83
2023-04-08T13:01:27.461Z,18.00
2023-04-08T13:03:55.506Z,16.73
2023-04-08T13:06:23.728Z,16.87
2023-04-08T13:08:52.891Z,17.63
2023-04-08T13:11:21.327Z,17.23
2023-04-08T13:13:49.457Z,18.43
2023-04-08T13:16:18.138Z,18.97
2023-04-08T13:18:46.586Z,18.10
2023-04-08T13:21:14.200Z,18.47
2023-04-08T13:23:42.304Z,20.40
2023-04-08T13:26:11.384Z,20.57
2023-04-08T13:28:53.841Z,21.53
2023-04-08T13:31:24.882Z,20.10
2023-04-08T13:33:56.051Z,17.90
2023-04-08T13:36:25.976Z,20.00
2023-04-08T13:38:53.932Z,19.70
2023-04-08T13:41:23.376Z,20.80
2023-04-08T13:43:51.188Z,18.83
2023-04-08T13:46:18.992Z,18.60
2023-04-08T13:48:47.218Z,19.40
2023-04-08T13:51:15.559Z,18.30
2023-04-08T13:53:43.649Z,17.53
2023-04-08T13:56:11.627Z,18.70
2023-04-08T13:58:41.367Z,18.97
2023-04-08T14:01:09.322Z,19.97
2023-04-08T14:03:37.236Z,19.93
2023-04-08T14:06:05.316Z,19.37
2023-04-08T14:08:33.292Z,18.73
2023-04-08T14:11:01.319Z,18.83
2023-04-08T14:13:29.249Z,19.73
2023-04-08T14:16:01.611Z,19.70
2023-04-08T14:18:29.502Z,19.30
2023-04-08T14:20:57.654Z,21.53
2023-04-08T14:23:25.617Z,17.67
2023-04-08T14:25:53.500Z,17.20
2023-04-08T14:28:21.562Z,20.03
2023-04-08T14:30:49.498Z,19.70
2023-04-08T14:33:18.964Z,19.83
2023-04-08T14:35:47.793Z,20.00
2023-04-08T14:38:15.901Z,20.23
2023-04-08T14:40:44.033Z,20.30
2023-04-08T14:43:12.662Z,22.40
2023-04-08T14:45:41.202Z,20.90
2023-04-08T14:48:09.360Z,21.80
2023-04-08T14:50:38.809Z,21.47
2023-04-08T14:53:06.998Z,19.70
2023-04-08T14:55:35.032Z,19.37
2023-04-08T14:58:02.941Z,20.60
2023-04-08T15:00:30.798Z,19.77
2023-04-08T15:02:58.950Z,21.10
2023-04-08T15:05:27.033Z,22.13
2023-04-08T15:07:56.501Z,22.23
2023-04-08T15:10:24.372Z,24.00
2023-04-08T15:12:52.281Z,21.20
2023-04-08T15:15:20.037Z,24.03
2023-04-08T15:17:49.625Z,25.80
2023-04-08T15:20:20.333Z,23.40
2023-04-08T15:22:48.434Z,23.80
2023-04-08T15:25:17.639Z,23.37
2023-04-08T15:27:45.500Z,25.37
2023-04-08T15:30:14.258Z,27.03
2023-04-08T15:32:42.572Z,27.27
2023-04-08T15:35:11.515Z,25.87
2023-04-08T15:37:39.540Z,26.10
2023-04-08T15:40:09.198Z,25.03
2023-04-08T15:42:38.606Z,24.40
2023-04-08T15:45:07.346Z,22.77
2023-04-08T15:47:35.411Z,24.70
2023-04-08T15:50:03.529Z,28.10
2023-04-08T15:52:31.672Z,26.17
2023-04-08T15:54:59.528Z,23.43
2023-04-08T15:57:28.004Z,24.50
2023-04-08T15:59:57.436Z,28.63
2023-04-08T16:02:25.708Z,28.53
2023-04-08T16:04:53.794Z,29.20
2023-04-08T16:07:21.794Z,31.27
2023-04-08T16:09:49.733Z,30.00
2023-04-08T16:12:17.600Z,30.83
2023-04-08T16:14:46.399Z,29.87
2023-04-08T16:17:16.587Z,26.87
2023-04-08T16:19:44.518Z,29.77
2023-04-08T16:22:12.633Z,28.93
2023-04-08T16:24:40.762Z,29.17
2023-04-08T16:27:08.923Z,31.50
2023-04-08T16:29:36.763Z,29.10
2023-04-08T16:32:05.362Z,30.70
2023-04-08T16:34:34.777Z,29.33
2023-04-08T16:37:02.951Z,29.00
2023-04-08T16:39:30.908Z,30.20
2023-04-08T16:41:58.937Z,28.83
2023-04-08T16:44:26.934Z,30.37
2023-04-08T16:46:55.011Z,30.03
2023-04-08T16:49:23.077Z,30.87
2023-04-08T16:51:52.439Z,31.80
2023-04-08T16:54:20.775Z,32.70
2023-04-08T16:56:48.778Z,31.20
2023-04-08T16:59:17.044Z,35.37
2023-04-08T17:01:45.255Z,31.30
2023-04-08T17:04:13.348Z,36.80
2023-04-08T17:06:42.588Z,36.47
2023-04-08T17:09:12.370Z,40.67
2023-04-08T17:11:40.976Z,37.83
2023-04-08T17:14:09.174Z,38.60
2023-04-08T17:16:37.261Z,37.13
2023-04-08T17:19:05.715Z,38.10
2023-04-08T17:21:33.928Z,35.17
2023-04-08T17:24:02.104Z,35.83
2023-04-08T17:26:31.829Z,34.60
2023-04-08T17:29:00.182Z,37.53
2023-04-08T17:31:28.872Z,34.87
2023-04-08T17:33:57.069Z,36.17
2023-04-08T17:36:30.455Z,38.40
2023-04-08T17:38:59.697Z,39.97
2023-04-08T17:41:38.986Z,39.70
2023-04-08T17:44:10.530Z,42.00
2023-04-08T17:46:38.561Z,40.63
2023-04-08T17:49:06.950Z,40.97
2023-04-08T17:51:35.004Z,41.50
2023-04-08T17:54:03.268Z,40.23
2023-04-08T17:56:31.338Z,43.17
2023-04-08T17:58:59.378Z,41.27
2023-04-08T18:01:28.983Z,42.40
2023-04-08T18:03:57.060Z,42.57
2023-04-08T18:06:26.003Z,41.80
2023-04-08T18:08:53.846Z,43.63
2023-04-08T18:11:26.646Z,40.90
2023-04-08T18:13:54.928Z,40.50
2023-04-08T18:16:23.179Z,43.37
2023-04-08T18:18:52.813Z,44.20
2023-04-08T18:21:22.137Z,45.47
2023-04-08T18:23:51.183Z,45.53
2023-04-08T18:26:19.270Z,47.27
2023-04-08T18:28:47.381Z,49.77
2023-04-08T18:31:15.212Z,50.80
2023-04-08T18:33:43.207Z,52.03
2023-04-08T18:36:14.093Z,52.10
2023-04-08T18:38:42.077Z,52.87
2023-04-08T18:41:10.148Z,55.57
2023-04-08T18:43:37.849Z,55.67
2023-04-08T18:46:05.689Z,53.77
2023-04-08T18:48:33.713Z,54.10
2023-04-08T18:51:02.885Z,54.87
2023-04-08T18:53:32.576Z,51.87
2023-04-08T18:56:01.003Z,53.87
2023-04-08T18:58:29.118Z,52.33
2023-04-08T19:00:57.232Z,50.93
2023-04-08T19:03:27.436Z,53.00
2023-04-08T19:05:55.693Z,52.83
2023-04-08T19:08:24.243Z,49.73
2023-04-08T19:10:56.810Z,46.80
2023-04-08T19:13:24.761Z,46.57
2023-04-08T19:15:52.779Z,46.63
2023-04-08T19:18:21.560Z,47.23
2023-04-08T19:20:59.113Z,46.60
2023-04-08T19:23:27.825Z,46.17
2023-04-08T19:25:57.556Z,47.60
2023-04-08T19:28:26.040Z,48.40
2023-04-08T19:30:57.070Z,49.60
2023-04-08T19:33:27.612Z,47.47
2023-04-08T19:35:56.057Z,47.43
2023-04-08T19:38:24.554Z,52.50
2023-04-08T19:40:52.682Z,62.03
2023-04-08T19:43:22.216Z,59.87
2023-04-08T19:45:54.626Z,59.83
2023-04-08T19:48:22.866Z,59.20
2023-04-08T19:50:52.329Z,56.70
2023-04-08T19:53:20.718Z,51.90
2023-04-08T19:55:48.903Z,50.27
2023-04-08T19:58:17.696Z,49.50
2023-04-08T20:00:47.064Z,51.07
2023-04-08T20:03:15.353Z,52.63
2023-04-08T20:05:43.963Z,51.27
2023-04-08T20:08:12.211Z,56.70
2023-04-08T20:10:41.248Z,54.30
2023-04-08T20:13:09.476Z,55.27
2023-04-08T20:15:37.590Z,57.80
2023-04-08T20:18:07.416Z,55.03
2023-04-08T20:20:35.886Z,56.57
2023-04-08T20:23:04.174Z,58.23
2023-04-08T20:25:32.720Z,55.50
2023-04-08T20:28:00.889Z,60.17
2023-04-08T20:30:29.096Z,58.73
2023-04-08T20:32:57.040Z,60.50
2023-04-08T20:35:26.971Z,59.67
2023-04-08T20:37:55.016Z,59.03
2023-04-08T20:40:23.157Z,66.13
2023-04-08T20:42:51.366Z,70.60
2023-04-08T20:45:19.532Z,70.80
2023-04-08T20:47:47.338Z,67.60
2023-04-08T20:50:15.310Z,74.70
2023-04-08T20:52:44.661Z,73.20
2023-04-08T20:55:13.007Z,66.10
2023-04-08T20:57:41.776Z,70.07
2023-04-08T21:00:12.871Z,70.67
2023-04-08T21:02:40.933Z,69.77
2023-04-08T21:05:09.684Z,72.90
2023-04-08T21:07:38.598Z,64.47
2023-04-08T21:10:09.417Z,70.93
2023-04-08T21:12:37.211Z,69.63
2023-04-08T21:15:05.445Z,71.63
2023-04-08T21:17:33.237Z,73.37
2023-04-08T21:20:01.378Z,74.13
2023-04-08T21:22:29.516Z,72.90
2023-04-08T21:24:57.934Z,72.33
2023-04-08T21:27:26.982Z,70.63
2023-04-08T21:29:54.711Z,71.67
2023-04-08T21:32:22.619Z,71.47
2023-04-08T21:34:50.407Z,68.00
2023-04-08T21:37:18.266Z,70.70
2023-04-08T21:39:46.308Z,65.97
2023-04-08T21:42:14.190Z,64.90
2023-04-08T21:44:43.556Z,70.60
2023-04-08T21:47:11.380Z,68.40
2023-04-08T21:49:39.297Z,68.47
2023-04-08T21:52:07.291Z,66.97
2023-04-08T21:54:35.259Z,72.27
2023-04-08T21:57:03.670Z,70.87
2023-04-08T21:59:31.652Z,68.60
2023-04-08T22:02:01.054Z,66.03
2023-04-08T22:04:29.699Z,70.57
2023-04-08T22:06:58.214Z,67.37
2023-04-08T22:09:26.476Z,69.17
2023-04-08T22:11:54.559Z,67.40
2023-04-08T22:14:22.425Z,69.50
2023-04-08T22:16:50.454Z,67.70
2023-04-08T22:19:20.093Z,64.67
2023-04-08T22:21:48.258Z,70.60
2023-04-08T22:24:16.390Z,64.83
2023-04-08T22:26:44.513Z,66.70
2023-04-08T22:29:12.577Z,67.30
2023-04-08T22:31:40.524Z,60.27
2023-04-08T22:34:08.677Z,58.70
2023-04-08T22:36:37.840Z,62.10
2023-04-08T22:39:05.859Z,61.30
2023-04-08T22:41:33.858Z,57.30
2023-04-08T22:44:01.792Z,57.70
2023-04-08T22:46:30.088Z,58.27
2023-04-08T22:48:58.169Z,58.60
2023-04-08T22:51:26.069Z,59.30
2023-04-08T22:53:55.348Z,56.47
2023-04-08T22:56:23.341Z,56.13
2023-04-08T22:58:51.737Z,53.77
2023-04-08T23:01:22.403Z,54.10
2023-04-08T23:03:51.546Z,57.67
2023-04-08T23:06:19.530Z,53.07
2023-04-08T23:08:47.681Z,56.63
2023-04-08T23:11:16.936Z,54.87
2023-04-08T23:13:45.541Z,56.97
2023-04-08T23:16:13.632Z,54.10
2023-04-08T23:18:41.535Z,57.00
2023-04-08T23:21:09.540Z,53.50
2023-04-08T23:23:37.284Z,52.73
2023-04-08T23:26:05.419Z,52.20
2023-04-08T23:28:34.776Z,51.70
2023-04-08T23:31:05.015Z,53.47
2023-04-08T23:33:32.880Z,50.27
2023-04-08T23:36:00.919Z,51.70
2023-04-08T23:38:28.743Z,50.33
2023-04-08T23:40:56.683Z,50.10
2023-04-08T23:43:24.657Z,49.03
2023-04-08T23:45:53.660Z,51.17
2023-04-08T23:48:21.546Z,48.27
2023-04-08T23:50:52.589Z,52.50
2023-04-08T23:53:20.741Z,47.97
2023-04-08T23:55:48.956Z,48.63
2023-04-08T23:58:16.873Z,49.47
